Time;durP1;ratioP1;P1;durP2;ratioP2;P2;SDS_P1;SDS_P2;PMS_P1;PMS_P2;Temp;Humidity;BMP_temperature;BMP_pressure;BME280_temperature;BME280_humidity;BME280_pressure;Samples;Min_cycle;Max_cycle;Signal;HPM_P1;HPM_P2
2022/10/07 00:01:10;;;;;;;19.40;12.00;;;;;;;9.57;70.57;101860.73;103845;1284;98649;-86
2022/10/07 00:03:39;;;;;;;18.90;13.00;;;;;;;9.61;70.27;101860.91;103904;1284;108413;-86
2022/10/07 00:06:16;;;;;;;18.70;12.70;;;;;;;9.53;70.60;101864.44;103712;1284;95313;-87
2022/10/07 00:08:47;;;;;;;20.70;13.00;;;;;;;9.49;70.60;101863.90;103776;1284;95262;-87
2022/10/07 00:11:36;;;;;;;18.70;12.60;;;;;;;9.38;70.84;101860.16;103881;1283;108595;-86
2022/10/07 00:14:08;;;;;;;18.80;12.90;;;;;;;9.33;70.90;101860.52;103885;1284;98583;-88
2022/10/07 00:16:43;;;;;;;18.80;12.80;;;;;;;9.34;70.93;101861.57;103793;1283;105908;-87
2022/10/07 00:19:12;;;;;;;19.00;13.00;;;;;;;9.29;71.10;101858.73;103988;1284;95723;-86
2022/10/07 00:21:41;;;;;;;19.00;13.10;;;;;;;9.23;71.06;101859.77;103867;1284;96184;-87
2022/10/07 00:24:10;;;;;;;20.20;13.20;;;;;;;9.15;71.21;101860.27;103702;1284;108786;-87
2022/10/07 00:26:39;;;;;;;18.30;13.20;;;;;;;9.14;71.44;101858.50;103963;1284;97599;-87
2022/10/07 00:29:27;;;;;;;18.20;12.10;;;;;;;9.07;71.63;101859.36;103892;1284;107909;-86
2022/10/07 00:31:55;;;;;;;18.60;13.00;;;;;;;9.02;71.67;101861.11;103818;1284;96105;-86
2022/10/07 00:34:24;;;;;;;19.80;12.80;;;;;;;9.01;71.53;101858.10;103759;1284;95333;-87
2022/10/07 00:36:52;;;;;;;20.30;13.40;;;;;;;8.97;71.49;101860.39;103791;1284;107058;-84
2022/10/07 00:39:20;;;;;;;19.30;12.50;;;;;;;8.93;71.76;101860.55;103756;1284;98500;-86
2022/10/07 00:41:51;;;;;;;19.40;12.50;;;;;;;8.90;72.10;101857.18;103740;1284;107774;-87
2022/10/07 00:44:38;;;;;;;19.30;12.70;;;;;;;8.86;71.91;101859.83;104067;1284;95243;-88
2022/10/07 00:47:11;;;;;;;18.50;12.10;;;;;;;8.83;72.42;101858.73;103924;1284;95461;-88
2022/10/07 00:50:12;;;;;;;18.40;11.80;;;;;;;8.85;72.44;101856.80;103856;1284;108260;-86
2022/10/07 00:52:48;;;;;;;18.60;11.90;;;;;;;8.79;72.10;101861.73;103747;1285;97617;-85
2022/10/07 00:55:38;;;;;;;19.20;11.90;;;;;;;8.86;72.31;101859.29;103840;1284;108485;-87
2022/10/07 00:58:08;;;;;;;18.00;11.90;;;;;;;8.89;71.73;101855.23;103749;1284;95147;-86
2022/10/07 01:00:39;;;;;;;17.50;12.00;;;;;;;8.88;71.64;101854.69;103940;1284;95267;-87
2022/10/07 01:03:07;;;;;;;17.60;12.10;;;;;;;8.89;71.78;101851.85;103887;1284;108664;-88
2022/10/07 01:05:35;;;;;;;16.70;11.30;;;;;;;8.86;71.73;101851.84;103776;1284;98391;-86
2022/10/07 01:08:03;;;;;;;17.50;11.90;;;;;;;8.85;71.53;101851.83;103830;1284;107785;-86
2022/10/07 01:11:00;;;;;;;16.30;11.20;;;;;;;8.81;71.21;101853.59;103662;1284;95556;-86
2022/10/07 01:13:43;;;;;;;17.90;12.30;;;;;;;8.78;71.38;101849.67;103834;1283;95506;-84
2022/10/07 01:17:01;;;;;;;17.50;11.40;;;;;;;8.73;71.76;101850.02;103801;1284;108782;-87
2022/10/07 01:19:43;;;;;;;16.80;11.80;;;;;;;8.65;72.04;101850.15;103345;1284;98433;-86
2022/10/07 01:22:28;;;;;;;17.10;11.80;;;;;;;8.58;72.10;101848.34;103925;1284;109269;-85
2022/10/07 01:25:35;;;;;;;16.80;11.20;;;;;;;8.51;72.12;101849.73;103991;1284;95296;-87
2022/10/07 01:28:15;;;;;;;16.40;11.90;;;;;;;8.38;72.38;101852.98;103300;1290;95998;-87
2022/10/07 01:31:06;;;;;;;17.00;11.70;;;;;;;8.30;72.73;101854.36;103096;1290;108740;-87
2022/10/07 01:33:51;;;;;;;17.30;11.50;;;;;;;8.29;72.87;101857.34;103469;1284;98934;-87
2022/10/07 01:36:23;;;;;;;18.90;11.40;;;;;;;8.31;72.91;101858.24;103766;1284;107839;-87
2022/10/07 01:39:02;;;;;;;17.10;11.80;;;;;;;8.26;72.86;101858.74;103994;1283;95267;-87
2022/10/07 01:41:31;;;;;;;16.40;11.40;;;;;;;8.23;73.13;101860.85;103709;1284;96299;-86
2022/10/07 01:44:00;;;;;;;17.50;11.50;;;;;;;8.16;73.30;101855.66;103913;1284;107657;-86
2022/10/07 01:46:29;;;;;;;17.40;11.50;;;;;;;8.19;73.19;101856.57;103793;1284;97698;-86
2022/10/07 01:49:00;;;;;;;17.80;11.30;;;;;;;8.21;73.16;101853.23;103941;1284;107749;-86
2022/10/07 01:51:34;;;;;;;16.90;11.70;;;;;;;8.17;72.88;101853.01;103906;1284;95750;-87
2022/10/07 01:54:34;;;;;;;16.30;10.80;;;;;;;8.12;73.15;101852.63;103731;1284;95232;-87
2022/10/07 01:57:22;;;;;;;17.70;11.10;;;;;;;8.11;73.29;101851.20;103854;1284;107746;-86
2022/10/07 02:00:11;;;;;;;19.50;11.40;;;;;;;8.13;73.33;101857.77;103751;1284;98439;-86
2022/10/07 02:02:53;;;;;;;17.00;10.40;;;;;;;8.07;73.30;101856.13;103694;1284;107927;-87
2022/10/07 02:05:26;;;;;;;15.30;10.40;;;;;;;8.07;73.36;101857.36;103785;1284;95659;-87
2022/10/07 02:08:11;;;;;;;17.80;10.30;;;;;;;8.08;73.22;101852.77;103811;1284;95776;-88
2022/10/07 02:11:05;;;;;;;18.80;11.20;;;;;;;8.08;73.32;101851.35;103926;1284;107091;-86
2022/10/07 02:14:04;;;;;;;17.40;11.00;;;;;;;8.15;73.31;101854.41;103924;1284;98969;-89
2022/10/07 02:16:41;;;;;;;19.80;11.70;;;;;;;8.26;72.98;101853.44;103756;1284;258157;-86
2022/10/07 02:19:43;;;;;;;16.60;10.90;;;;;;;8.33;72.49;101852.77;103797;1285;96983;-86
2022/10/07 02:22:16;;;;;;;18.20;11.30;;;;;;;8.42;71.82;101852.12;103872;1284;95706;-87
2022/10/07 02:24:48;;;;;;;17.70;11.50;;;;;;;8.40;71.72;101849.80;103870;1284;109412;-87
2022/10/07 02:27:23;;;;;;;15.90;11.30;;;;;;;8.31;71.68;101849.92;103860;1284;98463;-85
2022/10/07 02:30:17;;;;;;;16.00;10.60;;;;;;;8.29;72.02;101852.73;103868;1284;106796;-86
2022/10/07 02:33:08;;;;;;;16.50;10.50;;;;;;;8.28;72.06;101851.68;103784;1284;95322;-87
2022/10/07 02:36:07;;;;;;;16.70;10.30;;;;;;;8.27;72.22;101845.66;103717;1284;95256;-87
2022/10/07 02:38:37;;;;;;;13.90;9.50;;;;;;;8.28;72.07;101844.07;103792;1285;108837;-86
2022/10/07 02:41:12;;;;;;;14.70;9.80;;;;;;;8.29;71.98;101846.38;104064;1284;98992;-86
2022/10/07 02:43:56;;;;;;;14.20;8.90;;;;;;;8.28;72.14;101845.84;103687;1284;105972;-86
2022/10/07 02:46:35;;;;;;;14.20;9.00;;;;;;;8.25;71.90;101846.35;104041;1284;95313;-88
2022/10/07 02:49:07;;;;;;;13.60;8.70;;;;;;;8.28;71.55;101847.97;103883;1284;95179;-86
2022/10/07 02:51:42;;;;;;;13.60;9.30;;;;;;;8.22;71.94;101840.84;103805;1284;108822;-86
2022/10/07 02:54:11;;;;;;;15.10;9.70;;;;;;;8.25;71.93;101841.92;103845;1284;98380;-86
2022/10/07 02:56:40;;;;;;;13.70;8.80;;;;;;;8.31;71.71;101841.61;103633;1284;109128;-87
2022/10/07 02:59:11;;;;;;;13.50;9.20;;;;;;;8.30;71.49;101841.60;103835;1284;95234;-87
2022/10/07 03:01:45;;;;;;;13.50;8.30;;;;;;;8.28;71.50;101840.88;103835;1284;95280;-86
2022/10/07 03:04:14;;;;;;;13.50;8.60;;;;;;;8.24;71.68;101844.57;103810;1284;110017;-87
2022/10/07 03:06:42;;;;;;;14.10;9.10;;;;;;;8.19;71.78;101841.71;103902;1284;98885;-86
2022/10/07 03:09:10;;;;;;;14.50;8.30;;;;;;;8.13;71.74;101841.31;103864;1284;107807;-86
2022/10/07 03:11:40;;;;;;;13.40;8.50;;;;;;;8.09;71.84;101845.89;103641;1285;95834;-85
2022/10/07 03:14:09;;;;;;;13.80;8.30;;;;;;;8.05;71.81;101844.79;103868;1283;95257;-88
2022/10/07 03:16:38;;;;;;;13.00;8.30;;;;;;;8.00;71.88;101842.98;103774;1284;108786;-85
2022/10/07 03:19:05;;;;;;;12.70;8.60;;;;;;;7.98;71.96;101844.40;103778;1284;98381;-85
2022/10/07 03:21:43;;;;;;;12.90;8.60;;;;;;;7.94;72.14;101843.81;103712;1284;105754;-87
2022/10/07 03:24:12;;;;;;;13.60;8.10;;;;;;;7.92;72.38;101837.63;103981;1284;95717;-84
2022/10/07 03:26:44;;;;;;;13.10;7.80;;;;;;;7.93;72.47;101839.41;103915;1285;95367;-85
2022/10/07 03:29:12;;;;;;;12.40;8.10;;;;;;;7.99;72.17;101841.40;104098;1284;110637;-87
2022/10/07 03:31:41;;;;;;;13.30;8.40;;;;;;;7.96;71.91;101842.08;103732;1284;98358;-87
2022/10/07 03:34:10;;;;;;;12.60;8.00;;;;;;;7.85;72.06;101841.28;103860;1284;107949;-87
2022/10/07 03:36:58;;;;;;;11.80;7.90;;;;;;;7.83;72.22;101838.96;103886;1284;95254;-86
2022/10/07 03:39:27;;;;;;;13.60;7.60;;;;;;;7.87;71.96;101841.29;103993;1283;95251;-87
2022/10/07 03:42:19;;;;;;;12.20;8.20;;;;;;;7.92;71.82;101839.73;103846;1284;108740;-86
2022/10/07 03:44:48;;;;;;;12.10;8.20;;;;;;;7.93;71.98;101836.20;104091;1284;98934;-86
2022/10/07 03:47:17;;;;;;;12.80;7.70;;;;;;;7.94;72.08;101838.34;103798;1284;108711;-87
2022/10/07 03:50:05;;;;;;;12.00;7.70;;;;;;;7.95;71.95;101836.75;103933;1284;95247;-87
2022/10/07 03:52:35;;;;;;;12.50;7.90;;;;;;;7.99;71.96;101832.73;103846;1284;95316;-87
2022/10/07 03:55:03;;;;;;;13.20;8.20;;;;;;;7.98;71.69;101830.23;103933;1284;108711;-87
2022/10/07 03:57:51;;;;;;;12.20;8.00;;;;;;;8.01;71.38;101832.91;103833;1284;97998;-86
2022/10/07 04:00:26;;;;;;;11.80;8.20;;;;;;;7.99;70.83;101833.08;103825;1284;107802;-87
2022/10/07 04:02:56;;;;;;;13.30;8.00;;;;;;;8.02;70.95;101827.80;104021;1284;96175;-87
2022/10/07 04:05:24;;;;;;;12.40;8.00;;;;;;;7.99;71.12;101823.17;103993;1284;95263;-88
2022/10/07 04:08:16;;;;;;;12.30;8.00;;;;;;;7.91;71.26;101825.23;104029;1284;108776;-87
2022/10/07 04:10:45;;;;;;;13.50;8.50;;;;;;;7.89;71.43;101823.27;103891;1284;98371;-86
2022/10/07 04:13:13;;;;;;;13.70;8.50;;;;;;;7.89;71.31;101818.51;103728;1285;106782;-86
2022/10/07 04:15:43;;;;;;;12.20;8.10;;;;;;;7.90;71.19;101818.52;103939;1284;95811;-88
2022/10/07 04:18:11;;;;;;;13.80;7.10;;;;;;;7.93;71.18;101819.41;104051;1284;95285;-86
2022/10/07 04:20:39;;;;;;;12.00;7.50;;;;;;;7.93;71.11;101816.40;103831;1284;108681;-86
2022/10/07 04:23:08;;;;;;;13.40;7.70;;;;;;;7.90;71.11;101816.55;104035;1284;97757;-88
2022/10/07 04:25:41;;;;;;;12.90;8.00;;;;;;;7.84;71.27;101820.76;103854;1284;107638;-86
2022/10/07 04:28:22;;;;;;;13.40;7.60;;;;;;;7.79;71.30;101816.47;104040;1284;95583;-88
2022/10/07 04:30:54;;;;;;;34.90;21.20;;;;;;;7.79;71.25;101813.46;104069;1283;95505;-85
2022/10/07 04:33:28;;;;;;;28.60;18.50;;;;;;;7.78;71.27;101812.23;103864;1284;110196;-86
2022/10/07 04:36:06;;;;;;;15.40;9.70;;;;;;;7.78;71.45;101810.81;103791;1285;99383;-86
2022/10/07 04:38:36;;;;;;;14.20;9.30;;;;;;;7.76;71.35;101812.02;103964;1284;108298;-85
2022/10/07 04:41:07;;;;;;;12.90;8.50;;;;;;;7.72;71.28;101808.46;103894;1284;95619;-86
2022/10/07 04:44:15;;;;;;;13.30;7.80;;;;;;;7.70;71.57;101814.63;103874;1284;95306;-86
2022/10/07 04:47:05;;;;;;;13.90;8.50;;;;;;;7.71;71.31;101807.73;103969;1283;108556;-87
2022/10/07 04:49:35;;;;;;;12.40;7.40;;;;;;;7.70;71.26;101805.26;103884;1284;98440;-87
2022/10/07 04:52:03;;;;;;;13.50;8.10;;;;;;;7.69;71.23;101804.01;103780;1284;108370;-86
2022/10/07 04:54:40;;;;;;;13.30;7.60;;;;;;;7.73;71.04;101805.11;103675;1284;95824;-85
2022/10/07 04:57:08;;;;;;;12.80;8.30;;;;;;;7.69;71.35;101805.26;103662;1284;95703;-86
2022/10/07 04:59:58;;;;;;;13.30;7.90;;;;;;;7.71;71.30;101804.55;103784;1284;106921;-86
2022/10/07 05:02:27;;;;;;;12.00;7.80;;;;;;;7.73;71.11;101803.70;103798;1284;98624;-87
2022/10/07 05:04:55;;;;;;;13.50;7.90;;;;;;;7.72;71.24;101803.67;103613;1284;107688;-86
2022/10/07 05:07:24;;;;;;;13.70;8.40;;;;;;;7.70;71.39;101803.49;103603;1284;95334;-87
2022/10/07 05:09:53;;;;;;;13.10;8.30;;;;;;;7.63;71.32;101799.55;103648;1285;95786;-86
2022/10/07 05:12:21;;;;;;;15.50;8.80;;;;;;;7.45;71.57;101797.45;103828;1284;108884;-86
2022/10/07 05:14:49;;;;;;;520.20;385.10;;;;;;;7.42;72.41;101797.41;103974;1285;98417;-88
2022/10/07 05:17:18;;;;;;;19.20;10.10;;;;;;;7.50;72.59;101796.61;103873;1285;108022;-86
2022/10/07 05:20:08;;;;;;;16.80;9.40;;;;;;;7.49;72.61;101801.55;105574;1283;95863;-86
2022/10/07 05:22:58;;;;;;;17.80;9.30;;;;;;;7.58;72.38;101802.86;105158;1284;95212;-87
2022/10/07 05:25:58;;;;;;;17.60;9.30;;;;;;;7.59;72.74;101801.81;104383;1284;109891;-86
2022/10/07 05:29:06;;;;;;;16.10;8.70;;;;;;;7.68;72.97;101799.23;104344;1284;100649;-86
2022/10/07 05:31:41;;;;;;;15.40;8.60;;;;;;;7.81;72.18;101799.69;104156;1284;109174;-85
2022/10/07 05:34:10;;;;;;;15.20;8.70;;;;;;;7.80;72.57;101802.33;103961;1284;95870;-86
2022/10/07 05:36:39;;;;;;;15.90;8.40;;;;;;;7.81;72.84;101799.86;103918;1284;95835;-87
2022/10/07 05:39:29;;;;;;;14.60;7.90;;;;;;;7.93;72.39;101802.95;103894;1284;109990;-88
2022/10/07 05:42:18;;;;;;;15.40;9.40;;;;;;;8.05;72.03;101801.46;103896;1284;101859;-86
2022/10/07 05:44:53;;;;;;;13.80;8.30;;;;;;;8.03;72.57;101804.98;103817;1284;106596;-86
2022/10/07 05:47:22;;;;;;;12.40;8.20;;;;;;;8.01;73.24;101806.91;103726;1284;95708;-85
2022/10/07 05:50:12;;;;;;;14.80;8.50;;;;;;;8.11;73.22;101806.27;103979;1284;95248;-87
2022/10/07 05:53:03;;;;;;;16.60;8.80;;;;;;;8.20;73.26;101803.14;103824;1283;108619;-87
2022/10/07 05:55:31;;;;;;;16.60;8.80;;;;;;;8.24;73.71;101805.98;103372;1285;99899;-86
2022/10/07 05:58:06;;;;;;;16.50;8.70;;;;;;;8.33;73.91;101804.46;103697;1284;107847;-86
2022/10/07 06:00:57;;;;;;;14.50;8.20;;;;;;;8.43;73.45;101805.05;103843;1284;95747;-86
2022/10/07 06:04:06;;;;;;;16.70;8.40;;;;;;;8.57;73.33;101800.55;103168;1290;95405;-85
2022/10/07 06:06:57;;;;;;;15.10;8.90;;;;;;;8.66;73.31;101803.59;103269;1289;109379;-85
2022/10/07 06:15:23;;;;;;;16.20;8.60;;;;;;;8.92;73.05;101804.75;103233;1291;96107;-85
2022/10/07 06:17:52;;;;;;;16.30;8.60;;;;;;;9.00;72.79;101806.19;103133;1290;96127;-87
2022/10/07 06:20:40;;;;;;;16.30;7.70;;;;;;;9.07;73.37;101808.70;103220;1290;108603;-87
2022/10/07 06:23:08;;;;;;;17.10;8.60;;;;;;;9.05;74.00;101810.45;103666;1285;98650;-86
2022/10/07 06:25:36;;;;;;;15.10;8.50;;;;;;;9.04;74.07;101814.88;103858;1284;106432;-86
2022/10/07 06:28:04;;;;;;;15.40;8.10;;;;;;;9.07;74.22;101812.95;103855;1284;95347;-86
2022/10/07 06:30:53;;;;;;;15.60;9.10;;;;;;;9.15;74.25;101815.80;103702;1285;96047;-86
2022/10/07 06:33:22;;;;;;;17.40;8.60;;;;;;;9.27;74.19;101816.71;103861;1284;108904;-86
2022/10/07 06:35:55;;;;;;;15.40;8.40;;;;;;;9.38;73.89;101813.54;103812;1284;100308;-85
2022/10/07 06:38:30;;;;;;;15.20;8.80;;;;;;;9.49;74.04;101812.31;103624;1284;107810;-86
2022/10/07 06:41:21;;;;;;;15.50;9.40;;;;;;;9.58;73.67;101813.55;103611;1284;95769;-86
2022/10/07 06:44:11;;;;;;;16.10;8.80;;;;;;;9.63;73.69;101815.69;103696;1284;96060;-87
2022/10/07 06:46:43;;;;;;;16.50;8.70;;;;;;;9.73;73.47;101813.20;103678;1284;108581;-86
2022/10/07 06:49:30;;;;;;;16.40;9.00;;;;;;;9.88;73.43;101814.80;103713;1285;99954;-86
2022/10/07 06:52:19;;;;;;;17.50;9.60;;;;;;;9.99;73.31;101816.20;103902;1284;108109;-86
2022/10/07 06:54:47;;;;;;;21.20;9.50;;;;;;;10.09;73.04;101814.06;104151;1284;95232;-86
2022/10/07 06:57:37;;;;;;;14.10;8.50;;;;;;;10.23;72.87;101809.97;104120;1283;96073;-86
2022/10/07 07:00:13;;;;;;;14.90;7.90;;;;;;;10.37;72.63;101809.59;104150;1284;108714;-86
2022/10/07 07:03:02;;;;;;;16.10;7.60;;;;;;;10.51;72.73;101814.53;103912;1284;98386;-84
2022/10/07 07:05:38;;;;;;;13.30;7.60;;;;;;;10.63;72.18;101811.13;103653;1285;109326;-84
2022/10/07 07:08:18;;;;;;;13.50;6.60;;;;;;;10.76;71.83;101813.55;104078;1284;95259;-86
2022/10/07 07:10:47;;;;;;;13.00;7.10;;;;;;;10.85;70.96;101813.16;103776;1285;95520;-85
2022/10/07 07:13:35;;;;;;;11.80;6.90;;;;;;;10.94;70.87;101808.86;103931;1284;109077;-86
2022/10/07 07:16:06;;;;;;;15.30;7.10;;;;;;;11.03;70.67;101807.73;104359;1284;96976;-85
2022/10/07 07:18:34;;;;;;;13.20;6.70;;;;;;;11.12;70.87;101811.23;104540;1284;105746;-84
2022/10/07 07:21:24;;;;;;;12.60;6.50;;;;;;;11.25;71.11;101807.61;104285;1284;95241;-85
2022/10/07 07:23:55;;;;;;;11.20;5.60;;;;;;;11.36;71.06;101809.13;106321;1284;93371;-86
2022/10/07 07:26:31;;;;;;;12.10;6.00;;;;;;;11.51;70.69;101809.39;104045;1284;109737;-86
2022/10/07 07:29:05;;;;;;;11.40;6.00;;;;;;;11.62;70.43;101806.98;104377;1284;98369;-87
2022/10/07 07:31:58;;;;;;;11.20;6.10;;;;;;;11.77;69.94;101804.91;105702;1284;109551;-86
2022/10/07 07:34:45;;;;;;;12.50;6.20;;;;;;;11.85;69.85;101807.50;103917;1284;95789;-85
2022/10/07 07:37:18;;;;;;;9.70;5.30;;;;;;;11.96;69.85;101804.75;103822;1285;95799;-87
2022/10/07 07:39:52;;;;;;;10.50;5.30;;;;;;;12.08;69.11;101806.61;104405;1284;108667;-86
2022/10/07 07:42:20;;;;;;;12.10;5.50;;;;;;;12.20;69.01;101805.42;103954;1284;98988;-86
2022/10/07 07:44:49;;;;;;;13.30;5.50;;;;;;;12.38;69.02;101802.55;104132;1284;107305;-85
2022/10/07 07:47:17;;;;;;;10.90;5.30;;;;;;;12.50;69.15;101804.91;103694;1285;95562;-85
2022/10/07 07:49:48;;;;;;;11.70;5.10;;;;;;;12.62;68.36;101799.77;103754;1285;95398;-87
2022/10/07 07:52:24;;;;;;;13.40;5.90;;;;;;;12.71;67.70;101799.32;103785;1284;108992;-87
2022/10/07 07:54:56;;;;;;;11.30;5.50;;;;;;;12.86;67.71;101797.52;104050;1284;98185;-86
2022/10/07 07:57:26;;;;;;;11.20;5.80;;;;;;;13.02;67.24;101795.69;103737;1285;109352;-87
2022/10/07 08:00:17;;;;;;;11.00;5.40;;;;;;;13.19;66.70;101797.95;103825;1284;95374;-85
2022/10/07 08:02:52;;;;;;;11.70;5.00;;;;;;;13.38;67.26;101796.80;103922;1284;95259;-88
2022/10/07 08:05:21;;;;;;;10.70;5.00;;;;;;;13.53;66.96;101793.90;104020;1285;108832;-89
2022/10/07 08:07:53;;;;;;;9.20;4.50;;;;;;;13.68;66.09;101791.50;103814;1284;98359;-87
2022/10/07 08:10:23;;;;;;;9.70;3.80;;;;;;;13.78;64.92;101789.72;104073;1284;109387;-86
2022/10/07 08:12:51;;;;;;;8.30;3.30;;;;;;;13.96;64.97;101783.16;104226;1284;95819;-86
2022/10/07 08:15:40;;;;;;;9.50;3.40;;;;;;;14.14;63.72;101784.61;103806;1287;95250;-87
2022/10/07 08:18:08;;;;;;;8.90;4.00;;;;;;;14.28;62.70;101784.17;103637;1288;107794;-86
2022/10/07 08:20:36;;;;;;;12.50;4.50;;;;;;;14.41;62.68;101777.48;103809;1287;98421;-86
2022/10/07 08:23:05;;;;;;;9.50;3.60;;;;;;;14.52;62.64;101779.21;103704;1287;107746;-88
2022/10/07 08:25:34;;;;;;;7.60;2.80;;;;;;;14.59;62.24;101773.55;103394;1290;96665;-86
2022/10/07 08:28:03;;;;;;;7.80;2.10;;;;;;;14.64;61.84;101772.92;103342;1289;95800;-85
2022/10/07 08:30:31;;;;;;;12.00;2.60;;;;;;;14.69;61.17;101770.33;103723;1287;107968;-86
2022/10/07 08:33:21;;;;;;;7.90;2.20;;;;;;;14.76;60.84;101769.29;103616;1284;98388;-87
2022/10/07 08:36:39;;;;;;;6.50;2.10;;;;;;;14.82;59.85;101765.40;104044;1284;107864;-85
2022/10/07 08:39:31;;;;;;;7.80;2.20;;;;;;;14.95;60.16;101760.46;104340;1284;95351;-85
2022/10/07 08:42:15;;;;;;;8.60;2.50;;;;;;;15.06;60.78;101756.08;104126;1284;95933;-86
2022/10/07 08:44:46;;;;;;;7.20;2.50;;;;;;;15.18;58.76;101759.73;104172;1284;107522;-87
2022/10/07 08:47:39;;;;;;;6.90;2.40;;;;;;;15.30;58.34;101758.92;104185;1284;97932;-85
2022/10/07 08:50:19;;;;;;;8.10;2.40;;;;;;;16.65;56.04;101751.11;104337;1284;107889;-84
2022/10/07 08:53:00;;;;;;;7.10;1.70;;;;;;;19.29;49.75;101741.56;104377;1283;95688;-86
2022/10/07 08:55:44;;;;;;;7.60;2.40;;;;;;;21.00;45.49;101734.48;104376;1284;95703;-86
2022/10/07 08:58:34;;;;;;;8.40;2.10;;;;;;;22.55;42.12;101732.14;104230;1284;108771;-87
2022/10/07 09:01:14;;;;;;;6.20;1.40;;;;;;;23.06;40.98;101732.72;104120;1284;98337;-85
2022/10/07 09:03:57;;;;;;;6.40;1.60;;;;;;;22.70;41.30;101733.85;103943;1284;108450;-86
2022/10/07 09:06:41;;;;;;;6.90;1.60;;;;;;;21.99;41.56;101733.00;104403;1284;95252;-85
2022/10/07 09:09:18;;;;;;;4.60;1.40;;;;;;;21.10;41.90;101736.23;104065;1284;95601;-87
2022/10/07 09:11:48;;;;;;;4.90;1.30;;;;;;;20.42;42.43;101730.73;103986;1285;108649;-84
2022/10/07 09:14:44;;;;;;;5.30;1.60;;;;;;;19.88;43.08;101732.27;103784;1285;99931;-85
2022/10/07 09:17:21;;;;;;;5.30;1.40;;;;;;;19.89;42.75;101728.23;103808;1284;107035;-85
2022/10/07 09:19:56;;;;;;;6.10;1.70;;;;;;;20.22;42.34;101728.39;103916;1284;95687;-85
2022/10/07 09:22:39;;;;;;;5.20;1.60;;;;;;;21.43;40.21;101717.07;103964;1284;95284;-87
2022/10/07 09:25:30;;;;;;;5.60;1.80;;;;;;;23.60;37.83;101715.43;103790;1284;110252;-84
2022/10/07 09:27:58;;;;;;;5.70;1.50;;;;;;;25.44;34.53;101712.30;104274;1284;99839;-88
2022/10/07 09:30:28;;;;;;;4.70;1.30;;;;;;;26.99;32.54;101709.13;104115;1284;107824;-88
2022/10/07 09:32:57;;;;;;;6.00;1.40;;;;;;;28.69;30.94;101707.23;103758;1284;96851;-87
2022/10/07 09:35:37;;;;;;;5.40;1.40;;;;;;;29.93;27.60;101704.29;103778;1284;95269;-88
2022/10/07 09:38:37;;;;;;;5.10;1.40;;;;;;;30.62;26.66;101702.38;103715;1284;110137;-88
2022/10/07 09:41:31;;;;;;;5.70;1.30;;;;;;;31.73;26.10;101706.77;103747;1285;98176;-88
2022/10/07 09:44:21;;;;;;;6.30;1.70;;;;;;;32.32;24.65;101706.66;103877;1284;106617;-87
2022/10/07 09:46:53;;;;;;;6.10;1.60;;;;;;;32.93;23.83;101697.06;104013;1284;95269;-87
2022/10/07 09:49:28;;;;;;;4.90;1.60;;;;;;;33.58;23.70;101692.49;105004;1284;95197;-87
2022/10/07 09:52:03;;;;;;;5.10;1.60;;;;;;;33.92;22.79;101690.63;104153;1284;109485;-87
2022/10/07 09:54:34;;;;;;;6.00;1.80;;;;;;;34.88;22.70;101683.33;104340;1284;98380;-88
2022/10/07 09:57:04;;;;;;;5.30;1.60;;;;;;;35.58;21.58;101684.05;104129;1284;109921;-86
2022/10/07 09:59:35;;;;;;;4.80;1.40;;;;;;;35.60;20.19;101683.53;104122;1285;95482;-87
2022/10/07 10:02:12;;;;;;;4.80;1.20;;;;;;;35.50;20.14;101676.09;103946;1284;96278;-86
2022/10/07 10:04:52;;;;;;;4.50;1.40;;;;;;;35.79;20.14;101673.18;103797;1284;108611;-86
2022/10/07 10:07:27;;;;;;;4.10;1.20;;;;;;;35.93;19.80;101669.98;103790;1284;100342;-87
2022/10/07 10:10:02;;;;;;;6.60;1.20;;;;;;;35.97;19.43;101664.54;103836;1284;108251;-86
2022/10/07 10:12:44;;;;;;;4.80;1.30;;;;;;;36.09;19.44;101663.91;103828;1285;95172;-88
2022/10/07 10:15:22;;;;;;;6.20;1.60;;;;;;;36.37;19.14;101654.02;103820;1284;95558;-87
2022/10/07 10:17:55;;;;;;;4.10;1.20;;;;;;;36.27;19.00;101652.58;103809;1284;108723;-87
2022/10/07 10:20:43;;;;;;;4.70;1.40;;;;;;;36.16;18.97;101648.27;103819;1284;98571;-86
2022/10/07 10:23:38;;;;;;;6.30;1.20;;;;;;;34.00;20.40;101640.05;103710;1284;107860;-87
2022/10/07 10:26:47;;;;;;;4.40;1.20;;;;;;;31.15;22.96;101645.73;103892;1284;95228;-86
2022/10/07 10:29:40;;;;;;;4.70;1.00;;;;;;;30.28;23.37;101639.50;103807;1284;95708;-87
2022/10/07 10:32:50;;;;;;;4.60;1.00;;;;;;;29.60;24.24;101632.44;103797;1284;108723;-86
2022/10/07 10:35:24;;;;;;;4.90;1.00;;;;;;;27.81;26.54;101632.67;103744;1284;98147;-85
2022/10/07 10:38:03;;;;;;;4.70;1.40;;;;;;;26.47;28.48;101623.34;103858;1284;107746;-89
2022/10/07 10:40:39;;;;;;;4.70;1.40;;;;;;;25.63;30.08;101621.89;103782;1284;95590;-86
2022/10/07 10:43:25;;;;;;;4.50;1.40;;;;;;;24.69;30.43;101615.20;103746;1284;95787;-85
2022/10/07 10:46:14;;;;;;;5.70;1.30;;;;;;;23.79;32.04;101616.74;103835;1284;108439;-86
2022/10/07 10:49:28;;;;;;;6.70;2.00;;;;;;;23.16;33.36;101616.02;103749;1284;98380;-87
2022/10/07 10:52:24;;;;;;;5.20;1.60;;;;;;;22.57;34.59;101614.39;103782;1284;107836;-86
2022/10/07 10:55:11;;;;;;;5.00;1.30;;;;;;;21.97;34.27;101606.33;103707;1285;95268;-87
2022/10/07 10:57:54;;;;;;;5.50;1.50;;;;;;;21.50;35.10;101607.73;103853;1284;95706;-88
2022/10/07 11:01:10;;;;;;;6.10;1.20;;;;;;;21.14;36.30;101603.05;103896;1284;108879;-86
2022/10/07 11:03:54;;;;;;;5.10;1.50;;;;;;;20.67;37.16;101597.80;103764;1285;100182;-86
2022/10/07 11:06:25;;;;;;;4.70;1.40;;;;;;;20.37;38.32;101592.46;103868;1283;108285;-86
2022/10/07 11:08:56;;;;;;;4.40;1.40;;;;;;;20.23;38.57;101585.35;103509;1284;96255;-85
2022/10/07 11:11:25;;;;;;;5.10;1.20;;;;;;;20.11;39.72;101586.64;103961;1284;95710;-86
2022/10/07 11:14:00;;;;;;;7.60;1.40;;;;;;;19.89;39.52;101579.91;103857;1284;109357;-88
2022/10/07 11:17:00;;;;;;;4.90;1.40;;;;;;;19.72;40.45;101573.45;103822;1287;97785;-89
2022/10/07 11:19:36;;;;;;;6.70;1.60;;;;;;;19.54;40.79;101564.55;103824;1287;109562;-88
2022/10/07 11:22:31;;;;;;;5.00;1.70;;;;;;;19.40;40.34;101558.69;103645;1286;95517;-88
2022/10/07 11:25:19;;;;;;;5.30;1.50;;;;;;;19.25;41.02;101553.23;103492;1288;96145;-89
2022/10/07 11:27:52;;;;;;;5.80;1.60;;;;;;;19.15;41.67;101550.96;103687;1287;108525;-87
2022/10/07 11:30:57;;;;;;;4.40;1.40;;;;;;;19.06;42.44;101548.64;103671;1287;100273;-85
2022/10/07 11:33:38;;;;;;;5.30;1.40;;;;;;;18.99;42.84;101548.05;103637;1286;107764;-88
2022/10/07 11:36:17;;;;;;;5.10;1.40;;;;;;;18.91;43.50;101542.27;103895;1284;95252;-86
2022/10/07 11:39:07;;;;;;;5.40;1.50;;;;;;;18.86;43.02;101533.63;103806;1284;95687;-85
2022/10/07 11:41:48;;;;;;;4.80;1.40;;;;;;;18.85;43.80;101527.53;103862;1284;110257;-87
2022/10/07 11:44:43;;;;;;;5.20;1.40;;;;;;;18.81;43.49;101521.45;103851;1284;98390;-86
2022/10/07 11:47:39;;;;;;;4.90;1.30;;;;;;;18.71;43.19;101513.92;103781;1284;108456;-87
2022/10/07 11:50:18;;;;;;;5.60;1.60;;;;;;;18.68;43.65;101510.81;103866;1284;96001;-86
2022/10/07 11:53:09;;;;;;;4.10;1.30;;;;;;;18.68;44.43;101501.27;103957;1284;95182;-87
2022/10/07 11:55:46;;;;;;;5.80;1.70;;;;;;;18.71;43.94;101494.15;103856;1284;108463;-88
2022/10/07 11:58:28;;;;;;;4.70;1.20;;;;;;;18.74;43.67;101485.23;104014;1284;98888;-87
2022/10/07 12:01:29;;;;;;;5.00;1.20;;;;;;;18.72;43.63;101478.61;103709;1284;109583;-87
2022/10/07 12:04:28;;;;;;;5.10;1.50;;;;;;;18.72;44.09;101478.45;103967;1284;96181;-87
2022/10/07 12:07:35;;;;;;;6.00;1.50;;;;;;;18.71;43.32;101468.75;103777;1284;95255;-87
2022/10/07 12:10:32;;;;;;;5.50;1.60;;;;;;;18.64;44.20;101466.56;103800;1283;109221;-87
2022/10/07 12:13:20;;;;;;;5.00;1.40;;;;;;;18.56;44.22;101460.41;103935;1284;98382;-87